createdAt,value
2022-09-03T00:00:05.881Z,0.60
2022-09-03T00:02:43.765Z,0.70
2022-09-03T00:05:23.289Z,0.60
2022-09-03T00:08:03.904Z,0.88
2022-09-03T00:10:44.964Z,0.77
2022-09-03T00:13:18.732Z,0.80
2022-09-03T00:15:49.068Z,0.65
2022-09-03T00:18:22.077Z,0.60
2022-09-03T00:20:57.510Z,0.60
2022-09-03T00:23:29.528Z,0.80
2022-09-03T00:26:05.763Z,0.85
2022-09-03T00:28:42.472Z,0.60
2022-09-03T00:31:19.394Z,0.80
2022-09-03T00:33:51.853Z,0.90
2022-09-03T00:36:27.072Z,0.65
2022-09-03T00:38:55.464Z,0.65
2022-09-03T00:41:33.632Z,0.88
2022-09-03T00:44:39.871Z,0.85
2022-09-03T00:47:18.727Z,0.95
2022-09-03T00:50:03.013Z,0.98
2022-09-03T00:52:46.317Z,1.05
2022-09-03T00:55:27.553Z,0.80
2022-09-03T00:58:21.472Z,0.85
2022-09-03T01:00:52.865Z,0.73
2022-09-03T01:03:34.440Z,0.70
2022-09-03T01:06:18.842Z,0.75
2022-09-03T01:09:10.284Z,0.50
2022-09-03T01:11:51.413Z,0.93
2022-09-03T01:14:45.884Z,0.73
2022-09-03T01:17:29.952Z,0.88
2022-09-03T01:20:28.590Z,0.80
2022-09-03T01:23:28.665Z,0.85
2022-09-03T01:26:16.921Z,1.60
2022-09-03T01:29:02.583Z,2.22
2022-09-03T01:31:40.181Z,2.15
2022-09-03T01:34:25.479Z,1.13
2022-09-03T01:39:42.790Z,2.75
2022-09-03T01:42:22.134Z,1.17
2022-09-03T01:45:31.489Z,1.70
2022-09-03T01:48:18.100Z,2.67
2022-09-03T01:50:54.900Z,2.25
2022-09-03T01:53:39.009Z,2.53
2022-09-03T01:56:26.911Z,1.33
2022-09-03T01:59:03.901Z,1.10
2022-09-03T02:01:39.133Z,0.75
2022-09-03T02:04:20.472Z,0.73
2022-09-03T02:06:49.943Z,0.95
2022-09-03T02:09:18.879Z,0.90
2022-09-03T02:11:54.317Z,0.80
2022-09-03T02:14:23.056Z,0.82
2022-09-03T02:16:52.772Z,0.93
2022-09-03T02:19:21.337Z,0.98
2022-09-03T02:21:54.545Z,1.00
2022-09-03T02:24:23.709Z,0.70
2022-09-03T02:26:52.088Z,1.25
2022-09-03T02:29:20.728Z,0.90
2022-09-03T02:31:49.244Z,0.57
2022-09-03T02:34:18.999Z,0.73
2022-09-03T02:36:48.916Z,0.80
2022-09-03T02:39:18.154Z,0.90
2022-09-03T02:41:58.391Z,0.88
2022-09-03T02:44:31.830Z,0.75
2022-09-03T02:47:02.900Z,0.77
2022-09-03T02:49:33.264Z,1.00
2022-09-03T02:52:05.871Z,0.98
2022-09-03T02:54:36.863Z,0.82
2022-09-03T02:57:05.475Z,1.20
2022-09-03T02:59:34.319Z,1.05
2022-09-03T03:02:03.371Z,0.90
2022-09-03T03:04:34.391Z,0.93
2022-09-03T03:07:02.965Z,1.10
2022-09-03T03:09:31.325Z,1.92
2022-09-03T03:11:59.639Z,0.90
2022-09-03T03:14:28.383Z,1.50
2022-09-03T03:16:57.251Z,0.85
2022-09-03T03:19:25.548Z,1.23
2022-09-03T03:21:55.531Z,1.02
2022-09-03T03:24:24.092Z,1.20
2022-09-03T03:26:52.656Z,1.08
2022-09-03T03:29:21.340Z,0.70
2022-09-03T03:31:49.622Z,0.88
2022-09-03T03:34:17.913Z,1.23
2022-09-03T03:36:46.200Z,0.90
2022-09-03T03:39:15.952Z,0.90
2022-09-03T03:41:44.264Z,0.95
2022-09-03T03:44:12.847Z,0.90
2022-09-03T03:46:42.503Z,1.13
2022-09-03T03:49:11.087Z,1.00
2022-09-03T03:51:40.761Z,1.08
2022-09-03T03:54:09.430Z,1.00
2022-09-03T03:56:39.029Z,0.93
2022-09-03T03:59:07.321Z,1.00
2022-09-03T04:01:35.999Z,0.98
2022-09-03T04:04:05.620Z,0.70
2022-09-03T04:06:33.923Z,0.70
2022-09-03T04:09:02.393Z,1.00
2022-09-03T04:11:30.655Z,0.95
2022-09-03T04:14:00.302Z,0.80
2022-09-03T04:16:29.620Z,0.90
2022-09-03T04:18:58.500Z,0.70
2022-09-03T04:21:29.195Z,0.63
2022-09-03T04:23:58.869Z,0.80
2022-09-03T04:26:31.449Z,0.88
2022-09-03T04:29:03.068Z,1.00
2022-09-03T04:31:32.644Z,0.90
2022-09-03T04:34:01.183Z,0.95
2022-09-03T04:36:31.927Z,0.80
2022-09-03T04:39:02.671Z,0.70
2022-09-03T04:41:32.548Z,0.88
2022-09-03T04:44:02.224Z,1.10
2022-09-03T04:46:33.512Z,0.82
2022-09-03T04:49:02.918Z,1.13
2022-09-03T04:51:31.783Z,1.00
2022-09-03T04:54:02.877Z,1.10
2022-09-03T04:56:34.177Z,0.90
2022-09-03T04:59:06.811Z,0.90
2022-09-03T05:01:38.383Z,0.93
2022-09-03T05:04:08.184Z,0.70
2022-09-03T05:06:38.321Z,0.70
2022-09-03T05:09:07.677Z,1.52
2022-09-03T05:11:36.240Z,0.70
2022-09-03T05:14:07.148Z,0.88
2022-09-03T05:16:35.538Z,0.95
2022-09-03T05:19:06.335Z,1.17
2022-09-03T05:21:36.611Z,1.00
2022-09-03T05:24:06.247Z,1.20
2022-09-03T05:26:38.766Z,1.00
2022-09-03T05:29:09.356Z,1.20
2022-09-03T05:31:40.009Z,1.48
2022-09-03T05:34:10.056Z,1.40
2022-09-03T05:36:39.935Z,1.08
2022-09-03T05:39:08.655Z,1.25
2022-09-03T05:41:37.784Z,1.25
2022-09-03T05:44:06.393Z,1.63
2022-09-03T05:46:37.766Z,1.63
2022-09-03T05:49:08.591Z,1.67
2022-09-03T05:51:39.489Z,1.63
2022-09-03T05:54:09.227Z,1.67
2022-09-03T05:56:41.081Z,1.80
2022-09-03T05:59:11.784Z,1.80
2022-09-03T06:01:51.606Z,1.60
2022-09-03T06:04:21.397Z,1.80
2022-09-03T06:06:49.983Z,1.58
2022-09-03T06:09:20.570Z,1.58
2022-09-03T06:11:50.462Z,1.70
2022-09-03T06:14:22.029Z,2.15
2022-09-03T06:16:52.979Z,1.80
2022-09-03T06:19:22.063Z,1.80
2022-09-03T06:21:50.577Z,1.65
2022-09-03T06:24:24.686Z,1.75
2022-09-03T06:26:56.476Z,1.50
2022-09-03T06:29:24.875Z,2.05
2022-09-03T06:31:56.002Z,2.38
2022-09-03T06:34:27.220Z,2.58
2022-09-03T06:36:55.667Z,1.67
2022-09-03T06:39:24.709Z,2.20
2022-09-03T06:41:53.498Z,2.15
2022-09-03T06:44:28.606Z,2.25
2022-09-03T06:47:01.363Z,2.05
2022-09-03T06:49:31.395Z,1.77
2022-09-03T06:51:59.990Z,1.95
2022-09-03T06:54:28.392Z,2.22
2022-09-03T06:56:56.692Z,2.63
2022-09-03T06:59:24.968Z,2.10
2022-09-03T07:01:53.588Z,1.88
2022-09-03T07:04:25.075Z,2.28
2022-09-03T07:06:53.506Z,1.85
2022-09-03T07:09:21.763Z,2.10
2022-09-03T07:11:50.098Z,1.80
2022-09-03T07:14:20.248Z,2.33
2022-09-03T07:16:49.947Z,2.03
2022-09-03T07:19:18.479Z,2.13
2022-09-03T07:21:50.819Z,2.17
2022-09-03T07:24:22.012Z,1.92
2022-09-03T07:26:52.128Z,2.10
2022-09-03T07:29:21.652Z,1.85
2022-09-03T07:31:53.159Z,2.25
2022-09-03T07:34:27.101Z,1.90
2022-09-03T07:36:57.869Z,2.10
2022-09-03T07:39:26.935Z,2.05
2022-09-03T07:41:58.311Z,2.17
2022-09-03T07:44:28.545Z,2.28
2022-09-03T07:46:58.771Z,2.72
2022-09-03T07:49:27.371Z,2.15
2022-09-03T07:51:57.102Z,3.05
2022-09-03T07:54:27.312Z,3.25
2022-09-03T07:56:56.814Z,3.25
2022-09-03T07:59:26.114Z,2.88
2022-09-03T08:01:54.616Z,2.60
2022-09-03T08:04:23.050Z,2.92
2022-09-03T08:06:55.381Z,2.67
2022-09-03T08:09:25.175Z,3.08
2022-09-03T08:11:53.487Z,3.03
2022-09-03T08:14:22.180Z,2.38
2022-09-03T08:16:50.773Z,2.70
2022-09-03T08:19:20.040Z,2.42
2022-09-03T08:21:48.840Z,2.50
2022-09-03T08:24:20.883Z,2.67
2022-09-03T08:26:52.575Z,2.50
2022-09-03T08:29:22.183Z,2.25
2022-09-03T08:31:50.884Z,3.00
2022-09-03T08:34:21.356Z,2.85
2022-09-03T08:36:50.486Z,2.15
2022-09-03T08:39:19.058Z,2.30
2022-09-03T08:42:25.536Z,2.38
2022-09-03T08:44:58.170Z,2.10
2022-09-03T08:47:31.197Z,2.28
2022-09-03T08:50:04.471Z,2.47
2022-09-03T08:52:38.668Z,2.30
2022-09-03T08:55:21.489Z,2.28
2022-09-03T08:57:56.612Z,2.60
2022-09-03T09:00:24.972Z,2.95
2022-09-03T09:03:30.875Z,2.83
2022-09-03T09:08:49.401Z,3.00
2022-09-03T09:11:38.832Z,3.28
2022-09-03T09:14:19.719Z,2.85
2022-09-03T09:17:00.893Z,3.10
2022-09-03T09:19:46.748Z,3.55
2022-09-03T09:22:25.267Z,3.40
2022-09-03T09:24:57.357Z,3.40
2022-09-03T09:27:26.367Z,4.00
2022-09-03T09:30:01.766Z,2.90
2022-09-03T09:32:31.973Z,3.40
2022-09-03T09:35:00.543Z,3.45
2022-09-03T09:37:29.047Z,4.10
2022-09-03T09:40:00.518Z,3.95
2022-09-03T09:42:30.985Z,3.78
2022-09-03T09:45:11.850Z,3.13
2022-09-03T09:47:41.624Z,3.03
2022-09-03T09:50:25.068Z,3.05
2022-09-03T09:53:06.851Z,2.33
2022-09-03T09:55:35.873Z,3.13
2022-09-03T09:58:13.994Z,3.50
2022-09-03T10:00:59.807Z,4.30
2022-09-03T10:03:31.311Z,3.20
2022-09-03T10:06:23.247Z,3.60
2022-09-03T10:08:51.644Z,4.07
2022-09-03T10:11:23.636Z,4.53
2022-09-03T10:13:53.593Z,5.10
2022-09-03T10:16:28.539Z,4.50
2022-09-03T10:19:07.795Z,5.50
2022-09-03T10:21:46.729Z,5.63
2022-09-03T10:24:44.929Z,5.60
2022-09-03T10:27:23.640Z,5.97
2022-09-03T10:29:53.407Z,5.78
2022-09-03T10:32:41.856Z,5.82
2022-09-03T10:35:26.955Z,5.28
2022-09-03T10:38:07.960Z,5.13
2022-09-03T10:40:41.983Z,4.63
2022-09-03T10:43:37.920Z,4.50
2022-09-03T10:46:20.591Z,4.28
2022-09-03T10:49:23.433Z,3.80
2022-09-03T10:52:00.257Z,3.45
2022-09-03T10:54:50.695Z,3.95
2022-09-03T10:57:33.076Z,3.17
2022-09-03T11:00:10.147Z,3.50
2022-09-03T11:03:12.728Z,3.70
2022-09-03T11:05:50.133Z,3.55
2022-09-03T11:08:25.581Z,3.08
2022-09-03T11:10:58.262Z,3.33
2022-09-03T11:13:31.085Z,3.28
2022-09-03T11:16:05.038Z,3.10
2022-09-03T11:18:42.203Z,2.63
2022-09-03T11:21:17.574Z,2.72
2022-09-03T11:23:55.296Z,2.70
2022-09-03T11:26:27.776Z,2.50
2022-09-03T11:29:03.160Z,2.35
2022-09-03T11:31:48.039Z,1.83
2022-09-03T11:37:21.541Z,1.73
2022-09-03T11:40:00.307Z,2.05
2022-09-03T11:42:37.219Z,1.83
2022-09-03T11:45:23.606Z,2.40
2022-09-03T11:47:53.766Z,2.10
2022-09-03T11:50:26.130Z,1.90
2022-09-03T11:53:08.514Z,2.80
2022-09-03T11:55:55.228Z,2.53
2022-09-03T11:58:29.776Z,2.67
2022-09-03T12:00:59.607Z,2.45
2022-09-03T12:03:36.679Z,2.60
2022-09-03T12:06:40.022Z,2.05
2022-09-03T12:09:40.045Z,2.15
2022-09-03T12:12:29.904Z,2.28
2022-09-03T12:15:07.692Z,1.98
2022-09-03T12:17:45.485Z,2.10
2022-09-03T12:20:17.214Z,1.70
2022-09-03T12:22:45.691Z,1.63
2022-09-03T12:25:17.398Z,1.27
2022-09-03T12:27:49.343Z,1.80
2022-09-03T12:30:23.147Z,1.63
2022-09-03T12:32:52.519Z,1.67
2022-09-03T12:38:18.549Z,1.10
2022-09-03T12:43:37.611Z,1.42
2022-09-03T12:46:14.591Z,1.35
2022-09-03T12:51:52.350Z,1.00
2022-09-03T12:54:23.055Z,0.90
2022-09-03T12:56:58.744Z,1.27
2022-09-03T12:59:32.481Z,0.85
2022-09-03T13:02:06.610Z,0.90
2022-09-03T13:04:38.137Z,1.05
2022-09-03T13:07:13.940Z,1.27
2022-09-03T13:09:43.284Z,1.17
2022-09-03T13:12:30.165Z,1.70
2022-09-03T13:15:06.600Z,1.20
2022-09-03T13:18:07.244Z,1.58
2022-09-03T13:20:43.685Z,1.52
2022-09-03T13:23:37.175Z,1.55
2022-09-03T13:26:20.890Z,1.30
2022-09-03T13:29:14.434Z,1.77
2022-09-03T13:31:47.839Z,1.20
2022-09-03T13:34:24.005Z,1.08
2022-09-03T13:36:59.705Z,1.10
2022-09-03T13:39:32.977Z,1.10
2022-09-03T13:42:11.976Z,0.82
2022-09-03T13:44:50.125Z,1.13
2022-09-03T13:47:33.376Z,1.10
2022-09-03T13:50:26.704Z,0.90
2022-09-03T13:53:04.053Z,0.85
2022-09-03T13:55:38.451Z,0.50
2022-09-03T13:58:13.059Z,0.60
2022-09-03T14:00:50.308Z,0.93
2022-09-03T14:03:33.334Z,0.82
2022-09-03T14:06:15.007Z,0.40
2022-09-03T14:08:59.064Z,0.70
2022-09-03T14:11:35.805Z,0.90
2022-09-03T14:14:18.132Z,0.70
2022-09-03T14:16:55.259Z,0.93
2022-09-03T14:19:37.131Z,0.60
2022-09-03T14:22:12.219Z,0.52
2022-09-03T14:24:51.229Z,0.60
2022-09-03T14:27:28.417Z,1.00
2022-09-03T14:30:02.184Z,0.60
2022-09-03T14:32:44.150Z,0.70
2022-09-03T14:35:31.192Z,1.10
2022-09-03T14:39:16.819Z,1.05
2022-09-03T14:44:51.936Z,0.90
2022-09-03T14:47:39.832Z,1.15
2022-09-03T14:50:23.548Z,1.00
2022-09-03T14:53:28.439Z,1.00
2022-09-03T14:56:34.072Z,0.87
2022-09-03T15:02:08.287Z,1.00
2022-09-03T15:04:57.001Z,1.10
2022-09-03T15:07:37.491Z,1.30
2022-09-03T15:10:20.220Z,1.10
2022-09-03T15:12:53.171Z,1.25
2022-09-03T15:15:27.988Z,1.30
2022-09-03T15:18:06.185Z,1.10
2022-09-03T15:20:51.418Z,1.42
2022-09-03T15:23:41.111Z,1.10
2022-09-03T15:26:44.423Z,1.50
2022-09-03T15:29:31.091Z,1.77
2022-09-03T15:32:09.236Z,1.92
2022-09-03T15:35:00.934Z,2.33
2022-09-03T15:37:39.840Z,1.85
2022-09-03T15:40:21.830Z,1.90
2022-09-03T15:42:56.845Z,2.03
2022-09-03T15:45:37.709Z,2.38
2022-09-03T15:48:27.641Z,2.20
2022-09-03T15:51:10.063Z,2.60
2022-09-03T15:53:51.253Z,2.10
2022-09-03T15:56:29.333Z,2.28
2022-09-03T15:59:04.705Z,2.38
2022-09-03T16:01:51.068Z,2.00
2022-09-03T16:04:34.959Z,1.90
2022-09-03T16:07:17.377Z,1.30
2022-09-03T16:10:23.820Z,1.10
2022-09-03T16:13:04.568Z,1.52
2022-09-03T16:15:41.441Z,1.58
2022-09-03T16:18:21.480Z,1.88
2022-09-03T16:21:00.019Z,2.25
2022-09-03T16:23:37.159Z,1.75
2022-09-03T16:26:12.236Z,1.48
2022-09-03T16:28:49.011Z,1.10
2022-09-03T16:31:29.697Z,1.10
2022-09-03T16:34:05.137Z,0.80
2022-09-03T16:36:45.852Z,0.80
2022-09-03T16:39:26.792Z,0.70
2022-09-03T16:42:05.197Z,0.68
2022-09-03T16:44:50.587Z,0.88
2022-09-03T16:47:32.028Z,0.75
2022-09-03T16:50:14.940Z,0.82
2022-09-03T16:52:56.895Z,0.38
2022-09-03T16:55:32.692Z,0.47
2022-09-03T16:58:23.181Z,0.25
2022-09-03T17:01:10.788Z,0.25
2022-09-03T17:04:05.664Z,0.40
2022-09-03T17:06:57.494Z,0.60
2022-09-03T17:09:46.757Z,0.50
2022-09-03T17:12:26.457Z,0.63
2022-09-03T17:15:23.125Z,0.63
2022-09-03T17:18:17.787Z,0.43
2022-09-03T17:20:56.697Z,0.80
2022-09-03T17:23:47.760Z,0.40
2022-09-03T17:26:29.930Z,1.02
2022-09-03T17:29:13.054Z,1.40
2022-09-03T17:31:52.203Z,1.63
2022-09-03T17:34:39.044Z,0.60
2022-09-03T17:37:19.903Z,0.57
2022-09-03T17:40:26.844Z,0.50
2022-09-03T17:43:06.096Z,0.45
2022-09-03T17:45:47.568Z,0.50
2022-09-03T17:48:45.566Z,0.50
2022-09-03T17:51:28.223Z,0.52
2022-09-03T17:54:06.280Z,0.43
2022-09-03T17:56:47.119Z,0.82
2022-09-03T17:59:26.029Z,0.75
2022-09-03T18:02:05.916Z,0.50
2022-09-03T18:04:51.132Z,0.80
2022-09-03T18:07:29.017Z,0.80
2022-09-03T18:10:09.353Z,0.75
2022-09-03T18:13:04.049Z,5.55
2022-09-03T18:15:39.347Z,2.25
2022-09-03T18:18:25.846Z,1.58
2022-09-03T18:21:24.289Z,1.10
2022-09-03T18:24:19.747Z,1.77
2022-09-03T18:27:13.999Z,1.05
2022-09-03T18:30:06.691Z,0.88
2022-09-03T18:32:52.969Z,0.73
2022-09-03T18:35:39.038Z,1.05
2022-09-03T18:38:26.124Z,0.60
2022-09-03T18:41:22.853Z,0.90
2022-09-03T18:44:21.039Z,0.82
2022-09-03T18:48:01.830Z,0.68
2022-09-03T18:50:31.297Z,0.80
2022-09-03T18:53:29.005Z,0.77
2022-09-03T18:56:32.634Z,0.82
2022-09-03T18:59:36.040Z,0.82
2022-09-03T19:02:32.885Z,1.00
2022-09-03T19:05:33.549Z,1.52
2022-09-03T19:08:30.847Z,1.65
2022-09-03T19:11:27.737Z,0.70
2022-09-03T19:14:21.162Z,0.70
2022-09-03T19:17:20.161Z,0.90
2022-09-03T19:20:23.737Z,0.80
2022-09-03T19:23:09.472Z,0.98
2022-09-03T19:25:55.535Z,1.08
2022-09-03T19:28:44.824Z,0.88
2022-09-03T19:31:59.843Z,2.85
2022-09-03T19:35:24.151Z,1.45
2022-09-03T19:38:25.322Z,1.20
2022-09-03T19:41:24.650Z,1.23
2022-09-03T19:44:37.427Z,1.45
2022-09-03T19:47:26.324Z,1.00
2022-09-03T19:50:22.124Z,1.10
2022-09-03T19:53:13.380Z,1.23
2022-09-03T19:56:07.592Z,1.10
2022-09-03T19:58:58.931Z,0.95
2022-09-03T20:01:52.892Z,2.25
2022-09-03T20:04:51.160Z,1.60
2022-09-03T20:07:38.772Z,1.40
2022-09-03T20:10:23.253Z,1.45
2022-09-03T20:13:02.593Z,4.65
2022-09-03T20:15:43.875Z,1.92
2022-09-03T20:18:27.075Z,1.15
2022-09-03T20:21:11.240Z,1.33
2022-09-03T20:23:48.076Z,1.67
2022-09-03T20:26:37.414Z,1.70
2022-09-03T20:29:46.400Z,1.52
2022-09-03T20:32:41.531Z,1.38
2022-09-03T20:35:20.300Z,1.73
2022-09-03T20:37:58.742Z,1.67
2022-09-03T20:40:38.847Z,1.52
2022-09-03T20:43:42.881Z,1.75
2022-09-03T20:46:39.353Z,1.52
2022-09-03T20:49:23.759Z,1.67
2022-09-03T20:52:06.399Z,1.60
2022-09-03T20:54:39.181Z,1.70
2022-09-03T20:57:37.337Z,1.75
2022-09-03T21:00:12.485Z,1.67
2022-09-03T21:03:16.933Z,1.80
2022-09-03T21:06:10.351Z,2.00
2022-09-03T21:09:06.754Z,1.70
2022-09-03T21:11:44.743Z,2.67
2022-09-03T21:14:33.559Z,2.28
2022-09-03T21:17:21.060Z,2.30
2022-09-03T21:20:04.401Z,1.95
2022-09-03T21:22:44.739Z,2.13
2022-09-03T21:25:21.372Z,1.70
2022-09-03T21:27:56.057Z,1.65
2022-09-03T21:30:24.735Z,1.52
2022-09-03T21:33:00.455Z,1.52
2022-09-03T21:35:33.838Z,1.83
2022-09-03T21:38:07.731Z,1.88
2022-09-03T21:40:46.800Z,1.23
2022-09-03T21:43:20.335Z,1.35
2022-09-03T21:46:00.995Z,1.25
2022-09-03T21:48:36.157Z,1.48
2022-09-03T21:51:12.087Z,1.60
2022-09-03T21:53:47.336Z,1.83
2022-09-03T21:56:54.876Z,1.48
2022-09-03T21:59:48.012Z,2.47
2022-09-03T22:02:25.239Z,2.10
2022-09-03T22:04:55.350Z,2.00
2022-09-03T22:07:53.386Z,2.05
2022-09-03T22:10:32.429Z,2.00
2022-09-03T22:13:16.099Z,2.08
2022-09-03T22:15:50.589Z,2.08
2022-09-03T22:18:28.857Z,2.47
2022-09-03T22:21:23.260Z,2.58
2022-09-03T22:24:10.256Z,2.50
2022-09-03T22:26:46.379Z,2.47
2022-09-03T22:29:28.539Z,2.35
2022-09-03T22:32:05.870Z,2.60
2022-09-03T22:35:06.681Z,2.60
2022-09-03T22:37:54.768Z,2.92
2022-09-03T22:40:29.615Z,3.25
2022-09-03T22:46:03.071Z,2.47
2022-09-03T22:49:11.626Z,2.88
2022-09-03T22:51:56.955Z,2.58
2022-09-03T22:57:07.761Z,2.08
2022-09-03T22:59:42.509Z,2.38
2022-09-03T23:04:51.887Z,2.15
2022-09-03T23:07:28.202Z,2.78
2022-09-03T23:10:03.421Z,2.60
2022-09-03T23:12:40.164Z,2.70
2022-09-03T23:15:14.078Z,2.75
2022-09-03T23:17:51.037Z,2.37
2022-09-03T23:20:23.479Z,2.80
2022-09-03T23:22:59.774Z,3.13
2022-09-03T23:25:35.979Z,3.05
2022-09-03T23:28:12.342Z,2.22
2022-09-03T23:30:41.666Z,3.08
2022-09-03T23:33:11.311Z,4.55
2022-09-03T23:35:49.226Z,4.53
2022-09-03T23:38:29.448Z,4.55
2022-09-03T23:41:03.237Z,5.28
2022-09-03T23:44:07.592Z,5.90
2022-09-03T23:46:45.095Z,5.95
2022-09-03T23:49:35.075Z,4.40
2022-09-03T23:52:39.108Z,3.83
2022-09-03T23:55:19.308Z,4.72
2022-09-03T23:58:00.894Z,4.28
